createdAt,value
2019-01-29T00:00:36.051Z,17.17
2019-01-29T00:03:16.696Z,17.19
2019-01-29T00:05:57.315Z,17.13
2019-01-29T00:08:38.706Z,17.11
2019-01-29T00:11:19.690Z,17.08
2019-01-29T00:14:01.689Z,17.07
2019-01-29T00:16:42.679Z,17.04
2019-01-29T00:19:23.845Z,17.04
2019-01-29T00:22:04.764Z,17.03
2019-01-29T00:24:45.405Z,16.97
2019-01-29T00:27:26.140Z,16.90
2019-01-29T00:30:06.846Z,16.87
2019-01-29T00:32:47.667Z,16.81
2019-01-29T00:35:28.674Z,16.85
2019-01-29T00:38:09.925Z,16.78
2019-01-29T00:40:51.158Z,16.73
2019-01-29T00:43:32.488Z,16.69
2019-01-29T00:46:13.622Z,16.63
2019-01-29T00:48:54.385Z,16.58
2019-01-29T00:51:35.219Z,16.64
2019-01-29T00:54:16.122Z,16.69
2019-01-29T00:56:57.292Z,16.68
2019-01-29T00:59:38.373Z,16.60
2019-01-29T01:02:18.945Z,16.62
2019-01-29T01:05:00.471Z,16.68
2019-01-29T01:07:41.627Z,16.77
2019-01-29T01:10:22.767Z,16.78
2019-01-29T01:13:03.351Z,16.90
2019-01-29T01:15:44.317Z,17.03
2019-01-29T01:18:25.152Z,17.16
2019-01-29T01:21:06.047Z,17.35
2019-01-29T01:23:47.201Z,17.38
2019-01-29T01:26:28.197Z,17.43
2019-01-29T01:29:09.144Z,17.52
2019-01-29T01:31:50.258Z,17.77
2019-01-29T01:34:31.059Z,18.06
2019-01-29T01:37:12.025Z,18.19
2019-01-29T01:39:53.268Z,18.32
2019-01-29T01:42:34.083Z,18.36
2019-01-29T01:45:15.312Z,18.39
2019-01-29T01:47:56.209Z,18.35
2019-01-29T01:50:37.391Z,18.48
2019-01-29T01:53:18.436Z,18.52
2019-01-29T01:55:59.645Z,18.53
2019-01-29T01:58:40.514Z,18.60
2019-01-29T02:01:21.387Z,18.56
2019-01-29T02:04:02.523Z,18.64
2019-01-29T02:06:43.496Z,18.78
2019-01-29T02:09:24.459Z,18.90
2019-01-29T02:12:05.446Z,19.10
2019-01-29T02:14:46.357Z,19.11
2019-01-29T02:17:27.286Z,19.37
2019-01-29T02:20:07.747Z,19.70
2019-01-29T02:22:48.737Z,19.87
2019-01-29T02:25:29.417Z,19.92
2019-01-29T02:28:10.905Z,19.96
2019-01-29T02:30:51.825Z,20.27
2019-01-29T02:33:33.090Z,20.48
2019-01-29T02:36:13.745Z,20.58
2019-01-29T02:38:55.048Z,20.50
2019-01-29T02:41:36.334Z,20.36
2019-01-29T02:44:17.677Z,20.11
2019-01-29T02:46:58.589Z,20.19
2019-01-29T02:49:39.495Z,20.29
2019-01-29T02:52:20.578Z,20.29
2019-01-29T02:55:01.862Z,20.41
2019-01-29T02:57:42.834Z,20.40
2019-01-29T03:00:23.788Z,20.38
2019-01-29T03:03:04.460Z,20.30
2019-01-29T03:05:45.134Z,20.45
2019-01-29T03:08:25.779Z,20.55
2019-01-29T03:11:06.663Z,20.43
2019-01-29T03:13:47.361Z,20.43
2019-01-29T03:16:28.131Z,20.40
2019-01-29T03:19:08.837Z,20.45
2019-01-29T03:21:49.770Z,20.64
2019-01-29T03:24:30.962Z,20.70
2019-01-29T03:27:11.486Z,20.83
2019-01-29T03:29:52.358Z,20.96
2019-01-29T03:32:33.426Z,21.44
2019-01-29T03:35:14.559Z,21.50
2019-01-29T03:37:55.600Z,21.36
2019-01-29T03:40:36.548Z,21.61
2019-01-29T03:43:17.216Z,21.83
2019-01-29T03:45:58.095Z,21.73
2019-01-29T03:48:39.021Z,21.65
2019-01-29T03:51:19.891Z,21.63
2019-01-29T03:54:00.701Z,21.65
2019-01-29T03:56:41.079Z,21.57
2019-01-29T03:59:22.255Z,21.49
2019-01-29T04:02:02.714Z,21.55
2019-01-29T04:04:43.890Z,21.52
2019-01-29T04:07:24.542Z,21.36
2019-01-29T04:10:04.830Z,21.40
2019-01-29T04:12:45.771Z,21.28
2019-01-29T04:15:26.868Z,21.28
2019-01-29T04:18:07.287Z,21.24
2019-01-29T04:20:48.423Z,21.63
2019-01-29T04:23:29.509Z,21.95
2019-01-29T04:26:10.342Z,22.32
2019-01-29T04:28:51.004Z,22.73
2019-01-29T04:31:31.598Z,22.84
2019-01-29T04:34:11.930Z,22.97
2019-01-29T04:36:52.804Z,23.05
2019-01-29T04:39:33.247Z,23.52
2019-01-29T04:42:13.733Z,23.75
2019-01-29T04:44:53.688Z,23.69
2019-01-29T04:47:34.434Z,23.79
2019-01-29T04:50:15.362Z,24.08
2019-01-29T04:52:55.265Z,24.05
2019-01-29T04:55:35.301Z,24.23
2019-01-29T04:58:16.070Z,24.39
2019-01-29T05:00:56.452Z,24.63
2019-01-29T05:03:37.016Z,24.81
2019-01-29T05:06:17.357Z,24.60
2019-01-29T05:08:57.601Z,24.71
2019-01-29T05:11:38.384Z,24.54
2019-01-29T05:14:18.855Z,24.65
2019-01-29T05:17:00.883Z,24.84
2019-01-29T05:19:41.345Z,24.98
2019-01-29T05:22:21.864Z,25.24
2019-01-29T05:25:02.235Z,25.22
2019-01-29T05:27:42.825Z,25.27
2019-01-29T05:30:23.423Z,24.88
2019-01-29T05:33:04.270Z,25.26
2019-01-29T05:35:44.401Z,25.01
2019-01-29T05:38:26.757Z,25.43
2019-01-29T05:41:08.024Z,25.31
2019-01-29T05:43:48.347Z,25.67
2019-01-29T05:46:28.499Z,25.71
2019-01-29T05:49:08.847Z,25.92
2019-01-29T05:51:49.294Z,25.75
2019-01-29T05:54:29.795Z,26.17
2019-01-29T05:57:10.196Z,26.07
2019-01-29T05:59:50.876Z,26.12
2019-01-29T06:02:31.256Z,26.14
2019-01-29T06:05:11.362Z,25.98
2019-01-29T06:07:51.647Z,25.53
2019-01-29T06:10:32.654Z,25.46
2019-01-29T06:13:12.737Z,25.20
2019-01-29T06:15:52.926Z,24.88
2019-01-29T06:18:33.595Z,24.87
2019-01-29T06:21:13.549Z,24.67
2019-01-29T06:23:53.958Z,24.29
2019-01-29T06:26:34.491Z,24.48
2019-01-29T06:29:14.637Z,24.59
2019-01-29T06:31:55.643Z,24.66
2019-01-29T06:34:35.411Z,24.68
2019-01-29T06:37:15.923Z,24.77
2019-01-29T06:39:56.792Z,24.66
2019-01-29T06:42:36.935Z,24.66
2019-01-29T06:45:17.697Z,24.70
2019-01-29T06:47:57.902Z,25.08
2019-01-29T06:50:38.931Z,25.12
2019-01-29T06:53:19.323Z,25.25
2019-01-29T06:56:00.275Z,25.27
2019-01-29T06:58:40.751Z,25.53
2019-01-29T07:01:20.902Z,25.54
2019-01-29T07:04:04.069Z,25.38
2019-01-29T07:06:44.354Z,25.70
2019-01-29T07:09:24.664Z,26.03
2019-01-29T07:12:04.692Z,26.09
2019-01-29T07:14:45.033Z,26.08
2019-01-29T07:17:25.734Z,26.05
2019-01-29T07:20:05.827Z,26.10
2019-01-29T07:22:46.430Z,26.16
2019-01-29T07:25:27.612Z,26.05
2019-01-29T07:28:08.030Z,26.21
2019-01-29T07:30:48.623Z,25.95
2019-01-29T07:33:29.393Z,25.58
2019-01-29T07:36:09.487Z,25.41
2019-01-29T07:38:49.478Z,25.24
2019-01-29T07:41:29.901Z,25.39
2019-01-29T07:44:11.576Z,25.45
2019-01-29T07:46:52.788Z,25.29
2019-01-29T07:49:33.586Z,25.30
2019-01-29T07:52:14.046Z,25.39
2019-01-29T07:54:54.864Z,25.47
2019-01-29T07:57:36.546Z,25.53
2019-01-29T08:00:16.901Z,25.44
2019-01-29T08:02:56.965Z,25.52
2019-01-29T09:14:15.005Z,26.23
2019-01-29T09:16:55.763Z,26.22
2019-01-29T09:19:37.154Z,25.85
2019-01-29T09:22:17.669Z,26.02
2019-01-29T09:24:57.964Z,25.89
2019-01-29T09:27:38.039Z,25.98
2019-01-29T09:30:18.384Z,25.97
2019-01-29T09:33:00.197Z,26.02
2019-01-29T09:35:40.793Z,26.04
2019-01-29T09:38:21.241Z,26.14
2019-01-29T09:41:01.475Z,26.04
2019-01-29T09:43:41.505Z,25.93
2019-01-29T09:46:22.194Z,25.90
2019-01-29T09:49:02.028Z,25.79
2019-01-29T09:51:42.394Z,25.90
2019-01-29T09:54:23.244Z,25.83
2019-01-29T09:57:05.007Z,25.77
2019-01-29T09:59:45.990Z,25.56
2019-01-29T10:02:27.318Z,25.59
2019-01-29T10:05:07.435Z,25.46
2019-01-29T10:07:48.947Z,25.41
2019-01-29T10:10:30.443Z,25.41
2019-01-29T10:13:10.983Z,25.33
2019-01-29T10:15:51.086Z,25.32
2019-01-29T10:18:31.169Z,25.16
2019-01-29T10:21:11.605Z,25.12
2019-01-29T10:23:52.964Z,25.19
2019-01-29T10:26:33.626Z,25.29
2019-01-29T10:29:14.679Z,25.30
2019-01-29T10:37:27.758Z,25.60
2019-01-29T10:40:08.158Z,25.53
2019-01-29T10:42:49.075Z,25.48
2019-01-29T10:45:29.444Z,25.26
2019-01-29T10:48:10.307Z,25.24
2019-01-29T10:50:51.059Z,25.22
2019-01-29T10:53:32.069Z,25.03
2019-01-29T10:56:12.828Z,24.93
2019-01-29T10:58:53.284Z,24.74
2019-01-29T11:01:33.809Z,24.60
2019-01-29T11:04:14.197Z,24.57
2019-01-29T11:06:55.086Z,24.45
2019-01-29T11:09:35.427Z,24.36
2019-01-29T11:12:16.086Z,24.15
2019-01-29T11:14:56.961Z,24.06
2019-01-29T11:17:38.045Z,23.88
2019-01-29T11:20:18.512Z,23.63
2019-01-29T11:22:59.277Z,23.39
2019-01-29T11:25:39.833Z,23.20
2019-01-29T11:28:20.548Z,22.87
2019-01-29T11:31:01.072Z,22.67
2019-01-29T11:33:41.737Z,22.43
2019-01-29T11:36:22.196Z,22.26
2019-01-29T11:39:02.449Z,21.99
2019-01-29T11:41:43.158Z,21.68
2019-01-29T11:44:23.607Z,21.46
2019-01-29T11:47:04.182Z,21.28
2019-01-29T11:49:45.445Z,21.14
2019-01-29T11:52:25.838Z,21.05
2019-01-29T11:55:06.165Z,20.96
2019-01-29T11:57:46.935Z,20.75
2019-01-29T12:00:27.881Z,20.59
2019-01-29T12:03:08.872Z,20.43
2019-01-29T12:05:49.627Z,20.33
2019-01-29T12:08:30.452Z,20.02
2019-01-29T12:11:11.365Z,19.90
2019-01-29T12:13:52.126Z,19.77
2019-01-29T12:16:33.116Z,19.63
2019-01-29T12:19:13.465Z,19.62
2019-01-29T12:21:53.793Z,19.49
2019-01-29T12:24:34.144Z,19.35
2019-01-29T12:27:14.768Z,19.26
2019-01-29T12:29:55.887Z,19.15
2019-01-29T12:32:36.311Z,19.03
2019-01-29T12:35:17.062Z,18.90
2019-01-29T12:37:57.910Z,18.79
2019-01-29T12:40:38.400Z,18.75
2019-01-29T12:43:19.223Z,18.63
2019-01-29T12:45:59.728Z,18.48
2019-01-29T12:48:39.891Z,18.44
2019-01-29T12:51:21.563Z,18.39
2019-01-29T12:54:04.678Z,18.23
2019-01-29T12:56:45.234Z,18.18
2019-01-29T12:59:25.533Z,18.06
2019-01-29T13:02:07.920Z,17.95
2019-01-29T13:04:48.757Z,17.81
2019-01-29T13:07:29.563Z,17.76
2019-01-29T13:10:10.613Z,17.70
2019-01-29T13:12:50.801Z,17.58
2019-01-29T13:15:30.996Z,17.45
2019-01-29T13:18:12.157Z,17.28
2019-01-29T13:20:52.036Z,17.20
2019-01-29T13:23:32.486Z,17.12
2019-01-29T13:26:13.118Z,17.11
2019-01-29T13:28:54.054Z,17.08
2019-01-29T13:31:34.158Z,17.05
2019-01-29T13:34:18.281Z,16.94
2019-01-29T13:36:58.720Z,16.82
2019-01-29T13:39:39.410Z,16.79
2019-01-29T13:42:19.585Z,16.70
2019-01-29T13:45:00.322Z,16.55
2019-01-29T13:47:41.615Z,16.45
2019-01-29T13:50:25.209Z,16.46
2019-01-29T13:53:10.398Z,16.46
2019-01-29T13:55:51.739Z,16.35
2019-01-29T13:58:32.225Z,16.29
2019-01-29T14:01:13.389Z,16.23
2019-01-29T14:03:55.083Z,16.08
2019-01-29T14:06:35.837Z,15.95
2019-01-29T14:09:16.817Z,15.89
2019-01-29T14:11:59.713Z,15.92
2019-01-29T14:14:41.825Z,15.81
2019-01-29T14:17:26.078Z,15.81
2019-01-29T14:20:06.611Z,15.76
2019-01-29T14:22:50.133Z,15.66
2019-01-29T14:25:33.465Z,15.60
2019-01-29T14:28:17.080Z,15.50
2019-01-29T14:30:59.670Z,15.47
2019-01-29T14:33:42.876Z,15.41
2019-01-29T14:36:29.314Z,15.47
2019-01-29T14:39:11.443Z,15.51
2019-01-29T14:41:51.732Z,15.43
2019-01-29T14:44:35.395Z,15.37
2019-01-29T14:47:16.611Z,15.35
2019-01-29T14:49:56.879Z,15.41
2019-01-29T14:52:37.490Z,15.30
2019-01-29T14:55:17.906Z,15.24
2019-01-29T14:57:58.072Z,15.22
2019-01-29T15:00:38.526Z,15.13
2019-01-29T15:03:19.842Z,15.06
2019-01-29T15:06:01.006Z,14.95
2019-01-29T15:08:41.468Z,14.89
2019-01-29T15:11:22.643Z,14.81
2019-01-29T15:14:09.489Z,14.70
2019-01-29T15:16:50.793Z,14.67
2019-01-29T15:19:31.922Z,14.56
2019-01-29T15:22:13.044Z,14.32
2019-01-29T15:24:54.766Z,14.19
2019-01-29T15:27:42.512Z,14.20
2019-01-29T15:30:27.904Z,14.15
2019-01-29T15:33:17.487Z,13.98
2019-01-29T15:35:59.224Z,14.09
2019-01-29T15:38:42.625Z,14.23
2019-01-29T15:41:22.945Z,14.29
2019-01-29T15:44:03.356Z,14.22
2019-01-29T15:46:43.922Z,14.20
2019-01-29T15:49:24.589Z,14.17
2019-01-29T15:52:05.358Z,14.09
2019-01-29T15:54:45.637Z,13.92
2019-01-29T15:57:26.325Z,13.75
2019-01-29T16:00:06.655Z,13.75
2019-01-29T16:02:47.334Z,13.94
2019-01-29T16:05:28.515Z,14.05
2019-01-29T16:08:09.040Z,13.85
2019-01-29T16:10:49.329Z,13.65
2019-01-29T16:13:29.685Z,13.45
2019-01-29T16:16:10.356Z,13.36
2019-01-29T16:18:50.399Z,13.46
2019-01-29T16:21:30.759Z,13.48
2019-01-29T16:24:10.927Z,13.48
2019-01-29T16:27:06.437Z,13.58
2019-01-29T16:29:42.170Z,13.70
2019-01-29T16:32:22.361Z,13.53
2019-01-29T16:35:02.889Z,13.39
2019-01-29T16:37:44.046Z,13.37
2019-01-29T16:40:24.728Z,13.37
2019-01-29T16:43:05.400Z,13.41
2019-01-29T16:45:45.855Z,13.34
2019-01-29T16:48:27.085Z,13.33
2019-01-29T16:51:11.512Z,13.34
2019-01-29T16:53:52.668Z,13.32
2019-01-29T16:56:32.869Z,13.39
2019-01-29T16:59:13.707Z,13.38
2019-01-29T17:01:53.962Z,13.40
2019-01-29T17:04:34.316Z,13.40
2019-01-29T17:07:15.006Z,13.42
2019-01-29T17:09:55.643Z,13.41
2019-01-29T17:12:37.575Z,13.33
2019-01-29T17:15:18.126Z,13.32
2019-01-29T17:17:59.100Z,13.33
2019-01-29T17:20:39.870Z,13.35
2019-01-29T17:23:20.520Z,13.25
2019-01-29T17:26:01.078Z,13.19
2019-01-29T17:28:41.743Z,13.17
2019-01-29T17:31:21.929Z,13.12
2019-01-29T17:34:02.662Z,12.92
2019-01-29T17:36:43.650Z,12.90
2019-01-29T17:39:24.534Z,12.89
2019-01-29T17:42:04.456Z,12.92
2019-01-29T17:44:45.642Z,13.03
2019-01-29T17:47:26.508Z,13.09
2019-01-29T17:50:06.764Z,13.03
2019-01-29T17:52:47.445Z,12.94
2019-01-29T17:55:27.251Z,12.87
2019-01-29T17:58:08.369Z,12.82
2019-01-29T18:00:49.227Z,12.84
2019-01-29T18:03:29.368Z,12.93
2019-01-29T18:06:09.528Z,12.94
2019-01-29T18:08:50.173Z,12.87
2019-01-29T18:11:30.555Z,12.82
2019-01-29T18:14:11.118Z,12.73
2019-01-29T18:16:54.776Z,12.71
2019-01-29T18:19:35.124Z,12.65
2019-01-29T18:22:15.838Z,12.61
2019-01-29T18:24:55.907Z,12.62
2019-01-29T18:27:36.798Z,12.68
2019-01-29T18:30:16.852Z,12.73
2019-01-29T18:32:57.627Z,12.65
2019-01-29T18:35:38.377Z,12.57
2019-01-29T18:38:18.990Z,12.48
2019-01-29T18:41:00.207Z,12.49
2019-01-29T18:43:41.425Z,12.56
2019-01-29T18:46:22.471Z,12.46
2019-01-29T18:49:02.964Z,12.47
2019-01-29T18:51:43.722Z,12.43
2019-01-29T18:54:25.003Z,12.35
2019-01-29T18:57:06.297Z,12.28
2019-01-29T18:59:47.276Z,12.18
2019-01-29T19:02:27.649Z,12.03
2019-01-29T19:05:07.884Z,12.07
2019-01-29T19:07:49.046Z,12.14
2019-01-29T19:10:29.876Z,12.17
2019-01-29T19:13:10.443Z,12.21
2019-01-29T19:15:52.087Z,12.13
2019-01-29T19:18:33.003Z,12.18
2019-01-29T19:21:14.029Z,12.24
2019-01-29T19:23:55.321Z,12.26
2019-01-29T19:26:36.204Z,12.28
2019-01-29T19:29:17.159Z,12.30
2019-01-29T19:31:57.805Z,12.36
2019-01-29T19:34:39.085Z,12.47
2019-01-29T19:37:20.365Z,12.47
2019-01-29T19:40:01.163Z,12.33
2019-01-29T19:42:41.975Z,12.26
2019-01-29T19:45:23.712Z,12.23
2019-01-29T19:48:04.844Z,12.22
2019-01-29T19:50:46.123Z,12.19
2019-01-29T19:53:26.924Z,12.17
2019-01-29T19:56:07.889Z,12.08
2019-01-29T19:58:49.049Z,12.17
2019-01-29T20:01:30.282Z,12.26
2019-01-29T20:04:11.244Z,12.21
2019-01-29T20:06:51.557Z,12.03
2019-01-29T20:09:32.505Z,11.98
2019-01-29T20:12:13.559Z,12.02
2019-01-29T20:14:54.525Z,12.09
2019-01-29T20:17:35.724Z,11.97
2019-01-29T20:20:16.922Z,11.84
2019-01-29T20:23:07.389Z,11.75
2019-01-29T20:25:40.205Z,11.73
2019-01-29T20:28:21.284Z,11.66
2019-01-29T20:31:02.210Z,11.67
2019-01-29T20:33:43.091Z,11.76
2019-01-29T20:36:24.369Z,11.81
2019-01-29T20:39:05.329Z,11.80
2019-01-29T20:41:46.216Z,11.69
2019-01-29T20:44:27.707Z,11.59
2019-01-29T20:47:09.163Z,11.72
2019-01-29T20:49:49.843Z,11.76
2019-01-29T20:52:31.082Z,11.66
2019-01-29T20:55:12.090Z,11.58
2019-01-29T20:57:53.361Z,11.51
2019-01-29T21:00:34.680Z,11.54
2019-01-29T21:03:15.706Z,11.56
2019-01-29T21:05:58.156Z,11.51
2019-01-29T21:08:39.579Z,11.42
2019-01-29T21:11:20.206Z,11.33
2019-01-29T21:14:01.397Z,11.26
2019-01-29T21:16:42.781Z,11.17
2019-01-29T21:19:24.013Z,11.09
2019-01-29T21:22:05.447Z,11.10
2019-01-29T21:24:46.506Z,11.15
2019-01-29T21:27:28.044Z,11.18
2019-01-29T21:30:09.032Z,11.16
2019-01-29T21:32:49.836Z,11.25
2019-01-29T21:35:30.944Z,11.17
2019-01-29T21:38:12.214Z,11.05
2019-01-29T21:40:53.252Z,11.11
2019-01-29T21:43:34.145Z,11.17
2019-01-29T21:46:15.729Z,11.04
2019-01-29T21:48:57.081Z,10.98
2019-01-29T21:51:37.970Z,10.91
2019-01-29T21:54:19.100Z,10.81
2019-01-29T21:57:00.355Z,10.73
2019-01-29T21:59:41.521Z,10.73
2019-01-29T22:02:25.020Z,10.75
2019-01-29T22:05:04.069Z,10.79
2019-01-29T22:07:45.476Z,10.68
2019-01-29T22:10:29.166Z,10.74
2019-01-29T22:13:10.195Z,10.73
2019-01-29T22:15:51.410Z,10.72
2019-01-29T22:18:32.506Z,10.72
2019-01-29T22:21:13.641Z,10.70
2019-01-29T22:23:54.634Z,10.66
2019-01-29T22:26:35.912Z,10.57
2019-01-29T22:29:23.148Z,10.47
2019-01-29T22:31:58.502Z,10.42
2019-01-29T22:34:41.593Z,10.38
2019-01-29T22:37:22.101Z,10.34
2019-01-29T22:40:03.112Z,10.27
2019-01-29T22:42:44.207Z,10.22
2019-01-29T22:45:25.487Z,10.14
2019-01-29T22:48:06.264Z,9.96
2019-01-29T22:50:48.366Z,9.81
2019-01-29T22:53:29.684Z,9.96
2019-01-29T22:56:10.684Z,10.06
2019-01-29T22:58:51.560Z,10.03
2019-01-29T23:01:32.596Z,9.89
2019-01-29T23:04:13.160Z,9.87
2019-01-29T23:06:54.770Z,9.94
2019-01-29T23:09:36.351Z,10.04
2019-01-29T23:12:17.427Z,10.04
2019-01-29T23:14:58.601Z,10.05
2019-01-29T23:17:39.381Z,10.05
2019-01-29T23:20:22.120Z,10.01
2019-01-29T23:23:02.394Z,10.10
2019-01-29T23:25:43.414Z,10.15
2019-01-29T23:28:24.164Z,9.94
2019-01-29T23:31:05.333Z,9.91
2019-01-29T23:33:46.966Z,9.76
2019-01-29T23:36:27.598Z,9.66
2019-01-29T23:39:09.163Z,9.66
2019-01-29T23:41:50.439Z,9.64
2019-01-29T23:44:32.761Z,9.57
2019-01-29T23:47:13.768Z,9.67
2019-01-29T23:49:54.747Z,9.67
2019-01-29T23:52:35.631Z,9.61
2019-01-29T23:55:16.557Z,9.57
2019-01-29T23:57:57.828Z,9.50
